sensor_id;sensor_type;location;lat;lon;timestamp;temperature;humidity
19403;DHT22;9837;48.888;8.998;2024-03-07T00:02:13;11.00;79.00
19403;DHT22;9837;48.888;8.998;2024-03-07T00:04:38;10.80;79.10
19403;DHT22;9837;48.888;8.998;2024-03-07T00:07:04;10.60;79.40
19403;DHT22;9837;48.888;8.998;2024-03-07T00:09:33;10.10;80.90
19403;DHT22;9837;48.888;8.998;2024-03-07T00:12:00;9.70;82.30
19403;DHT22;9837;48.888;8.998;2024-03-07T00:14:26;9.90;81.90
19403;DHT22;9837;48.888;8.998;2024-03-07T00:16:56;10.00;82.70
19403;DHT22;9837;48.888;8.998;2024-03-07T00:19:21;10.30;80.30
19403;DHT22;9837;48.888;8.998;2024-03-07T00:21:51;10.30;80.90
19403;DHT22;9837;48.888;8.998;2024-03-07T00:24:16;10.30;79.10
19403;DHT22;9837;48.888;8.998;2024-03-07T00:26:42;10.30;79.80
19403;DHT22;9837;48.888;8.998;2024-03-07T00:29:07;10.10;79.50
19403;DHT22;9837;48.888;8.998;2024-03-07T00:31:33;10.10;79.30
19403;DHT22;9837;48.888;8.998;2024-03-07T00:33:59;10.00;79.10
19403;DHT22;9837;48.888;8.998;2024-03-07T00:36:25;10.00;79.70
19403;DHT22;9837;48.888;8.998;2024-03-07T00:38:54;10.10;78.90
19403;DHT22;9837;48.888;8.998;2024-03-07T00:41:19;10.00;79.00
19403;DHT22;9837;48.888;8.998;2024-03-07T00:43:45;10.00;79.00
19403;DHT22;9837;48.888;8.998;2024-03-07T00:46:11;10.00;79.70
19403;DHT22;9837;48.888;8.998;2024-03-07T00:48:37;9.90;79.40
19403;DHT22;9837;48.888;8.998;2024-03-07T00:51:03;9.90;79.60
19403;DHT22;9837;48.888;8.998;2024-03-07T00:58:21;9.60;79.60
19403;DHT22;9837;48.888;8.998;2024-03-07T01:00:47;9.50;80.80
19403;DHT22;9837;48.888;8.998;2024-03-07T01:03:12;9.60;80.70
19403;DHT22;9837;48.888;8.998;2024-03-07T01:05:39;9.50;81.00
19403;DHT22;9837;48.888;8.998;2024-03-07T01:08:05;9.30;81.00
19403;DHT22;9837;48.888;8.998;2024-03-07T01:10:31;9.30;81.70
19403;DHT22;9837;48.888;8.998;2024-03-07T01:12:57;9.40;81.30
19403;DHT22;9837;48.888;8.998;2024-03-07T01:15:27;9.40;81.10
19403;DHT22;9837;48.888;8.998;2024-03-07T01:17:52;9.50;80.90
19403;DHT22;9837;48.888;8.998;2024-03-07T01:20:18;9.60;80.40
19403;DHT22;9837;48.888;8.998;2024-03-07T01:22:44;9.60;80.10
19403;DHT22;9837;48.888;8.998;2024-03-07T01:25:09;9.50;80.10
19403;DHT22;9837;48.888;8.998;2024-03-07T01:27:35;9.20;79.70
19403;DHT22;9837;48.888;8.998;2024-03-07T01:30:01;9.20;80.40
19403;DHT22;9837;48.888;8.998;2024-03-07T01:32:27;9.00;80.60
19403;DHT22;9837;48.888;8.998;2024-03-07T01:34:53;8.90;80.70
19403;DHT22;9837;48.888;8.998;2024-03-07T01:37:19;8.90;80.60
19403;DHT22;9837;48.888;8.998;2024-03-07T01:39:44;8.90;80.30
19403;DHT22;9837;48.888;8.998;2024-03-07T01:42:10;9.00;78.80
19403;DHT22;9837;48.888;8.998;2024-03-07T01:44:35;9.00;78.20
19403;DHT22;9837;48.888;8.998;2024-03-07T01:47:01;9.00;78.90
19403;DHT22;9837;48.888;8.998;2024-03-07T01:49:29;9.00;79.00
19403;DHT22;9837;48.888;8.998;2024-03-07T01:51:56;9.10;77.80
19403;DHT22;9837;48.888;8.998;2024-03-07T01:54:22;9.20;77.90
19403;DHT22;9837;48.888;8.998;2024-03-07T01:56:48;9.10;78.60
19403;DHT22;9837;48.888;8.998;2024-03-07T01:59:15;9.00;78.40
19403;DHT22;9837;48.888;8.998;2024-03-07T02:01:40;9.00;79.10
19403;DHT22;9837;48.888;8.998;2024-03-07T02:04:07;8.90;78.30
19403;DHT22;9837;48.888;8.998;2024-03-07T02:06:34;8.90;79.00
19403;DHT22;9837;48.888;8.998;2024-03-07T02:09:00;9.00;78.00
19403;DHT22;9837;48.888;8.998;2024-03-07T02:11:27;9.00;78.60
19403;DHT22;9837;48.888;8.998;2024-03-07T02:13:52;9.30;76.80
19403;DHT22;9837;48.888;8.998;2024-03-07T02:16:18;9.30;76.30
19403;DHT22;9837;48.888;8.998;2024-03-07T02:18:44;9.30;77.00
19403;DHT22;9837;48.888;8.998;2024-03-07T02:21:10;9.20;75.80
19403;DHT22;9837;48.888;8.998;2024-03-07T02:23:37;9.20;76.50
19403;DHT22;9837;48.888;8.998;2024-03-07T02:26:03;9.00;76.40
19403;DHT22;9837;48.888;8.998;2024-03-07T02:28:28;8.90;76.50
19403;DHT22;9837;48.888;8.998;2024-03-07T02:30:53;8.90;77.20
19403;DHT22;9837;48.888;8.998;2024-03-07T02:33:19;9.00;77.10
19403;DHT22;9837;48.888;8.998;2024-03-07T02:35:44;9.00;76.80
19403;DHT22;9837;48.888;8.998;2024-03-07T02:38:10;9.00;76.40
19403;DHT22;9837;48.888;8.998;2024-03-07T02:40:36;8.90;76.20
19403;DHT22;9837;48.888;8.998;2024-03-07T02:43:01;8.80;76.00
19403;DHT22;9837;48.888;8.998;2024-03-07T02:45:30;9.60;76.80
19403;DHT22;9837;48.888;8.998;2024-03-07T02:47:56;8.60;76.10
19403;DHT22;9837;48.888;8.998;2024-03-07T02:50:22;8.60;77.60
19403;DHT22;9837;48.888;8.998;2024-03-07T02:52:48;8.70;76.30
19403;DHT22;9837;48.888;8.998;2024-03-07T02:55:15;8.70;75.00
19403;DHT22;9837;48.888;8.998;2024-03-07T02:57:41;8.70;75.70
19403;DHT22;9837;48.888;8.998;2024-03-07T03:00:07;8.70;74.80
19403;DHT22;9837;48.888;8.998;2024-03-07T03:02:46;8.70;74.50
19403;DHT22;9837;48.888;8.998;2024-03-07T03:05:13;8.70;75.20
19403;DHT22;9837;48.888;8.998;2024-03-07T03:07:39;8.70;75.10
19403;DHT22;9837;48.888;8.998;2024-03-07T03:10:06;8.80;74.70
19403;DHT22;9837;48.888;8.998;2024-03-07T03:12:36;8.70;74.50
19403;DHT22;9837;48.888;8.998;2024-03-07T03:15:02;8.70;74.20
19403;DHT22;9837;48.888;8.998;2024-03-07T03:17:31;8.50;74.50
19403;DHT22;9837;48.888;8.998;2024-03-07T03:19:56;8.40;74.90
19403;DHT22;9837;48.888;8.998;2024-03-07T03:24:48;8.40;74.00
19403;DHT22;9837;48.888;8.998;2024-03-07T03:27:13;8.50;74.50
19403;DHT22;9837;48.888;8.998;2024-03-07T03:29:39;8.50;74.30
19403;DHT22;9837;48.888;8.998;2024-03-07T03:32:06;8.50;74.10
19403;DHT22;9837;48.888;8.998;2024-03-07T03:34:32;8.50;73.50
19403;DHT22;9837;48.888;8.998;2024-03-07T03:36:59;8.50;73.30
19403;DHT22;9837;48.888;8.998;2024-03-07T03:39:24;8.30;72.80
19403;DHT22;9837;48.888;8.998;2024-03-07T03:44:18;8.30;73.00
19403;DHT22;9837;48.888;8.998;2024-03-07T03:46:43;8.30;73.70
19403;DHT22;9837;48.888;8.998;2024-03-07T03:49:09;8.20;73.10
19403;DHT22;9837;48.888;8.998;2024-03-07T03:51:35;8.20;73.80
19403;DHT22;9837;48.888;8.998;2024-03-07T03:54:01;8.00;73.50
19403;DHT22;9837;48.888;8.998;2024-03-07T03:56:27;8.00;74.20
19403;DHT22;9837;48.888;8.998;2024-03-07T03:58:53;8.00;73.70
19403;DHT22;9837;48.888;8.998;2024-03-07T04:01:18;8.00;73.60
19403;DHT22;9837;48.888;8.998;2024-03-07T04:06:13;7.90;73.80
19403;DHT22;9837;48.888;8.998;2024-03-07T04:08:39;7.90;73.90
19403;DHT22;9837;48.888;8.998;2024-03-07T04:11:05;7.90;74.70
19403;DHT22;9837;48.888;8.998;2024-03-07T04:13:30;7.70;74.20
19403;DHT22;9837;48.888;8.998;2024-03-07T04:15:57;7.70;74.90
19403;DHT22;9837;48.888;8.998;2024-03-07T04:18:22;7.40;74.30
19403;DHT22;9837;48.888;8.998;2024-03-07T04:20:48;7.50;75.20
19403;DHT22;9837;48.888;8.998;2024-03-07T04:23:13;7.40;74.70
19403;DHT22;9837;48.888;8.998;2024-03-07T04:25:39;7.50;75.50
19403;DHT22;9837;48.888;8.998;2024-03-07T04:28:04;7.60;75.20
19403;DHT22;9837;48.888;8.998;2024-03-07T04:30:30;7.60;75.10
19403;DHT22;9837;48.888;8.998;2024-03-07T04:32:56;7.50;74.40
19403;DHT22;9837;48.888;8.998;2024-03-07T04:35:23;7.50;74.10
19403;DHT22;9837;48.888;8.998;2024-03-07T04:37:49;7.40;74.30
19403;DHT22;9837;48.888;8.998;2024-03-07T04:40:15;7.40;75.00
19403;DHT22;9837;48.888;8.998;2024-03-07T04:45:08;7.30;75.10
19403;DHT22;9837;48.888;8.998;2024-03-07T04:47:36;7.30;75.10
19403;DHT22;9837;48.888;8.998;2024-03-07T04:50:01;7.10;75.50
19403;DHT22;9837;48.888;8.998;2024-03-07T04:52:27;7.10;75.60
19403;DHT22;9837;48.888;8.998;2024-03-07T04:54:53;7.00;75.50
19403;DHT22;9837;48.888;8.998;2024-03-07T04:57:18;7.00;75.40
19403;DHT22;9837;48.888;8.998;2024-03-07T04:59:44;6.90;75.70
19403;DHT22;9837;48.888;8.998;2024-03-07T05:02:10;7.00;74.80
19403;DHT22;9837;48.888;8.998;2024-03-07T05:04:35;6.90;74.90
19403;DHT22;9837;48.888;8.998;2024-03-07T05:07:01;6.90;75.60
19403;DHT22;9837;48.888;8.998;2024-03-07T05:09:26;6.90;74.90
19403;DHT22;9837;48.888;8.998;2024-03-07T05:11:54;6.90;74.90
19403;DHT22;9837;48.888;8.998;2024-03-07T05:14:20;7.00;74.80
19403;DHT22;9837;48.888;8.998;2024-03-07T05:16:47;6.90;75.40
19403;DHT22;9837;48.888;8.998;2024-03-07T05:19:31;7.10;74.40
19403;DHT22;9837;48.888;8.998;2024-03-07T05:21:57;7.10;75.10
19403;DHT22;9837;48.888;8.998;2024-03-07T05:24:23;7.00;74.30
19403;DHT22;9837;48.888;8.998;2024-03-07T05:26:48;7.00;75.00
19403;DHT22;9837;48.888;8.998;2024-03-07T05:29:14;6.90;74.60
19403;DHT22;9837;48.888;8.998;2024-03-07T05:31:40;6.90;75.30
19403;DHT22;9837;48.888;8.998;2024-03-07T05:34:13;6.80;74.60
19403;DHT22;9837;48.888;8.998;2024-03-07T05:36:38;6.80;75.30
19403;DHT22;9837;48.888;8.998;2024-03-07T05:39:12;6.80;74.10
19403;DHT22;9837;48.888;8.998;2024-03-07T05:41:39;6.80;74.80
19403;DHT22;9837;48.888;8.998;2024-03-07T05:44:06;6.70;74.30
19403;DHT22;9837;48.888;8.998;2024-03-07T05:46:38;6.70;75.00
19403;DHT22;9837;48.888;8.998;2024-03-07T05:49:08;6.70;74.20
19403;DHT22;9837;48.888;8.998;2024-03-07T05:54:00;6.70;74.20
19403;DHT22;9837;48.888;8.998;2024-03-07T05:56:26;6.60;74.90
19403;DHT22;9837;48.888;8.998;2024-03-07T05:58:51;6.60;74.90
19403;DHT22;9837;48.888;8.998;2024-03-07T06:01:17;6.50;75.50
19403;DHT22;9837;48.888;8.998;2024-03-07T06:03:44;6.50;75.70
19403;DHT22;9837;48.888;8.998;2024-03-07T06:06:10;6.60;75.50
19403;DHT22;9837;48.888;8.998;2024-03-07T06:08:37;6.60;75.30
19403;DHT22;9837;48.888;8.998;2024-03-07T06:11:03;6.70;75.10
19403;DHT22;9837;48.888;8.998;2024-03-07T06:13:29;6.90;74.90
19403;DHT22;9837;48.888;8.998;2024-03-07T06:15:54;7.20;75.40
19403;DHT22;9837;48.888;8.998;2024-03-07T06:18:20;7.60;74.60
19403;DHT22;9837;48.888;8.998;2024-03-07T06:20:45;8.10;73.30
19403;DHT22;9837;48.888;8.998;2024-03-07T06:23:11;8.50;72.10
19403;DHT22;9837;48.888;8.998;2024-03-07T06:25:37;8.90;70.20
19403;DHT22;9837;48.888;8.998;2024-03-07T06:28:12;9.20;68.20
19403;DHT22;9837;48.888;8.998;2024-03-07T06:30:47;10.20;63.70
19403;DHT22;9837;48.888;8.998;2024-03-07T06:33:13;10.10;64.40
19403;DHT22;9837;48.888;8.998;2024-03-07T06:35:40;10.70;62.80
19403;DHT22;9837;48.888;8.998;2024-03-07T06:38:07;11.10;60.50
19403;DHT22;9837;48.888;8.998;2024-03-07T06:40:34;11.50;58.30
19403;DHT22;9837;48.888;8.998;2024-03-07T06:42:59;11.50;58.80
19403;DHT22;9837;48.888;8.998;2024-03-07T06:45:25;12.00;57.20
19403;DHT22;9837;48.888;8.998;2024-03-07T06:47:51;12.00;57.60
19403;DHT22;9837;48.888;8.998;2024-03-07T06:50:20;12.10;55.60
19403;DHT22;9837;48.888;8.998;2024-03-07T06:52:46;12.10;56.30
19403;DHT22;9837;48.888;8.998;2024-03-07T06:55:18;11.80;56.50
19403;DHT22;9837;48.888;8.998;2024-03-07T06:57:45;11.20;57.50
19403;DHT22;9837;48.888;8.998;2024-03-07T07:00:11;10.70;58.50
19403;DHT22;9837;48.888;8.998;2024-03-07T07:02:38;10.30;59.40
19403;DHT22;9837;48.888;8.998;2024-03-07T07:05:05;9.90;60.30
19403;DHT22;9837;48.888;8.998;2024-03-07T07:07:39;9.90;61.30
19403;DHT22;9837;48.888;8.998;2024-03-07T07:10:07;9.70;61.70
19403;DHT22;9837;48.888;8.998;2024-03-07T07:12:35;9.20;63.10
19403;DHT22;9837;48.888;8.998;2024-03-07T07:15:02;9.20;63.80
19403;DHT22;9837;48.888;8.998;2024-03-07T07:17:28;9.00;64.60
19403;DHT22;9837;48.888;8.998;2024-03-07T07:19:55;8.90;65.00
19403;DHT22;9837;48.888;8.998;2024-03-07T07:22:21;9.00;65.70
19403;DHT22;9837;48.888;8.998;2024-03-07T07:24:47;9.10;65.70
19403;DHT22;9837;48.888;8.998;2024-03-07T07:27:12;9.00;65.70
19403;DHT22;9837;48.888;8.998;2024-03-07T07:29:38;8.90;66.10
19403;DHT22;9837;48.888;8.998;2024-03-07T07:32:04;8.80;66.40
19403;DHT22;9837;48.888;8.998;2024-03-07T07:34:30;8.40;67.30
19403;DHT22;9837;48.888;8.998;2024-03-07T07:36:56;8.30;67.70
19403;DHT22;9837;48.888;8.998;2024-03-07T07:39:22;8.40;67.90
19403;DHT22;9837;48.888;8.998;2024-03-07T07:41:47;8.30;68.50
19403;DHT22;9837;48.888;8.998;2024-03-07T07:44:13;8.20;68.10
19403;DHT22;9837;48.888;8.998;2024-03-07T07:46:39;8.20;68.90
19403;DHT22;9837;48.888;8.998;2024-03-07T07:49:06;8.00;69.60
19403;DHT22;9837;48.888;8.998;2024-03-07T07:51:32;8.00;70.00
19403;DHT22;9837;48.888;8.998;2024-03-07T07:53:57;8.00;69.30
19403;DHT22;9837;48.888;8.998;2024-03-07T07:56:23;7.90;69.90
19403;DHT22;9837;48.888;8.998;2024-03-07T07:58:50;7.90;69.80
19403;DHT22;9837;48.888;8.998;2024-03-07T08:01:16;7.90;70.80
19403;DHT22;9837;48.888;8.998;2024-03-07T08:03:45;8.30;70.20
19403;DHT22;9837;48.888;8.998;2024-03-07T08:06:10;8.40;67.50
19403;DHT22;9837;48.888;8.998;2024-03-07T08:08:36;8.40;68.30
19403;DHT22;9837;48.888;8.998;2024-03-07T08:11:01;8.20;69.00
19403;DHT22;9837;48.888;8.998;2024-03-07T08:13:27;8.20;69.60
19403;DHT22;9837;48.888;8.998;2024-03-07T08:15:53;8.20;69.30
19403;DHT22;9837;48.888;8.998;2024-03-07T08:18:21;8.10;68.80
19403;DHT22;9837;48.888;8.998;2024-03-07T08:20:47;8.00;69.20
19403;DHT22;9837;48.888;8.998;2024-03-07T08:23:12;8.10;69.80
19403;DHT22;9837;48.888;8.998;2024-03-07T08:25:38;7.70;69.50
19403;DHT22;9837;48.888;8.998;2024-03-07T08:28:06;7.80;70.90
19403;DHT22;9837;48.888;8.998;2024-03-07T08:30:32;7.90;69.20
19403;DHT22;9837;48.888;8.998;2024-03-07T08:32:58;7.90;69.90
19403;DHT22;9837;48.888;8.998;2024-03-07T08:35:30;7.90;70.00
19403;DHT22;9837;48.888;8.998;2024-03-07T08:37:56;7.80;71.00
19403;DHT22;9837;48.888;8.998;2024-03-07T08:40:24;8.00;69.70
19403;DHT22;9837;48.888;8.998;2024-03-07T08:42:52;7.90;70.30
19403;DHT22;9837;48.888;8.998;2024-03-07T08:45:18;7.90;70.60
19403;DHT22;9837;48.888;8.998;2024-03-07T08:47:46;8.10;69.50
19403;DHT22;9837;48.888;8.998;2024-03-07T08:50:12;8.20;68.60
19403;DHT22;9837;48.888;8.998;2024-03-07T08:55:06;8.00;68.20
19403;DHT22;9837;48.888;8.998;2024-03-07T09:00:02;8.10;69.10
19403;DHT22;9837;48.888;8.998;2024-03-07T09:02:34;8.10;69.40
19403;DHT22;9837;48.888;8.998;2024-03-07T09:05:00;8.00;69.20
19403;DHT22;9837;48.888;8.998;2024-03-07T09:07:26;8.00;69.20
19403;DHT22;9837;48.888;8.998;2024-03-07T09:09:51;8.10;69.10
19403;DHT22;9837;48.888;8.998;2024-03-07T09:12:17;8.10;70.00
19403;DHT22;9837;48.888;8.998;2024-03-07T09:14:43;8.10;69.80
19403;DHT22;9837;48.888;8.998;2024-03-07T09:19:35;8.20;69.40
19403;DHT22;9837;48.888;8.998;2024-03-07T09:22:01;8.50;69.40
19403;DHT22;9837;48.888;8.998;2024-03-07T09:24:29;8.60;68.90
19403;DHT22;9837;48.888;8.998;2024-03-07T09:26:56;8.70;68.20
19403;DHT22;9837;48.888;8.998;2024-03-07T09:29:22;8.80;68.90
19403;DHT22;9837;48.888;8.998;2024-03-07T09:31:50;9.00;68.80
19403;DHT22;9837;48.888;8.998;2024-03-07T09:34:20;9.00;67.20
19403;DHT22;9837;48.888;8.998;2024-03-07T09:36:49;9.00;68.00
19403;DHT22;9837;48.888;8.998;2024-03-07T09:39:18;8.70;68.20
19403;DHT22;9837;48.888;8.998;2024-03-07T09:41:44;8.60;67.80
19403;DHT22;9837;48.888;8.998;2024-03-07T09:44:17;8.60;68.50
19403;DHT22;9837;48.888;8.998;2024-03-07T09:46:48;8.60;69.20
19403;DHT22;9837;48.888;8.998;2024-03-07T09:49:15;8.70;69.00
19403;DHT22;9837;48.888;8.998;2024-03-07T09:51:41;8.90;68.60
19403;DHT22;9837;48.888;8.998;2024-03-07T09:54:08;8.90;67.70
19403;DHT22;9837;48.888;8.998;2024-03-07T09:56:35;8.80;68.30
19403;DHT22;9837;48.888;8.998;2024-03-07T09:59:04;9.20;68.20
19403;DHT22;9837;48.888;8.998;2024-03-07T10:01:33;9.10;67.10
19403;DHT22;9837;48.888;8.998;2024-03-07T10:04:01;9.10;67.40
19403;DHT22;9837;48.888;8.998;2024-03-07T10:06:37;9.10;68.00
19403;DHT22;9837;48.888;8.998;2024-03-07T10:09:04;9.10;68.10
19403;DHT22;9837;48.888;8.998;2024-03-07T10:16:22;9.60;66.70
19403;DHT22;9837;48.888;8.998;2024-03-07T10:18:48;9.80;66.20
19403;DHT22;9837;48.888;8.998;2024-03-07T10:21:19;9.60;66.10
19403;DHT22;9837;48.888;8.998;2024-03-07T10:23:44;9.70;66.10
19403;DHT22;9837;48.888;8.998;2024-03-07T10:26:10;10.90;67.20
19403;DHT22;9837;48.888;8.998;2024-03-07T10:28:37;9.40;67.30
19403;DHT22;9837;48.888;8.998;2024-03-07T10:31:04;9.70;67.40
19403;DHT22;9837;48.888;8.998;2024-03-07T10:33:34;9.80;66.20
19403;DHT22;9837;48.888;8.998;2024-03-07T10:36:00;10.40;64.10
19403;DHT22;9837;48.888;8.998;2024-03-07T10:38:26;10.40;64.80
19403;DHT22;9837;48.888;8.998;2024-03-07T10:40:53;10.50;64.30
19403;DHT22;9837;48.888;8.998;2024-03-07T10:43:20;10.60;64.00
19403;DHT22;9837;48.888;8.998;2024-03-07T10:45:50;10.40;64.20
19403;DHT22;9837;48.888;8.998;2024-03-07T10:48:25;10.30;64.60
19403;DHT22;9837;48.888;8.998;2024-03-07T10:53:42;10.60;64.40
19403;DHT22;9837;48.888;8.998;2024-03-07T10:59:25;10.70;63.50
19403;DHT22;9837;48.888;8.998;2024-03-07T11:04:50;10.80;64.30
19403;DHT22;9837;48.888;8.998;2024-03-07T11:07:20;10.60;65.10
19403;DHT22;9837;48.888;8.998;2024-03-07T11:09:49;10.80;65.30
19403;DHT22;9837;48.888;8.998;2024-03-07T11:12:19;11.10;65.30
19403;DHT22;9837;48.888;8.998;2024-03-07T11:14:48;11.40;63.40
19403;DHT22;9837;48.888;8.998;2024-03-07T11:17:15;11.30;62.70
19403;DHT22;9837;48.888;8.998;2024-03-07T11:19:41;11.40;62.90
19403;DHT22;9837;48.888;8.998;2024-03-07T11:22:07;11.40;63.60
19403;DHT22;9837;48.888;8.998;2024-03-07T11:24:43;11.20;63.20
19403;DHT22;9837;48.888;8.998;2024-03-07T11:27:09;10.50;65.00
19403;DHT22;9837;48.888;8.998;2024-03-07T11:29:51;10.50;65.70
19403;DHT22;9837;48.888;8.998;2024-03-07T11:32:20;10.50;65.10
19403;DHT22;9837;48.888;8.998;2024-03-07T11:34:49;10.50;66.60
19403;DHT22;9837;48.888;8.998;2024-03-07T11:37:38;10.20;66.20
19403;DHT22;9837;48.888;8.998;2024-03-07T11:42:53;10.50;65.30
19403;DHT22;9837;48.888;8.998;2024-03-07T11:45:20;10.50;66.20
19403;DHT22;9837;48.888;8.998;2024-03-07T11:47:53;10.80;64.70
19403;DHT22;9837;48.888;8.998;2024-03-07T11:50:25;10.80;63.20
19403;DHT22;9837;48.888;8.998;2024-03-07T11:52:52;10.80;63.90
19403;DHT22;9837;48.888;8.998;2024-03-07T11:55:20;10.90;63.90
19403;DHT22;9837;48.888;8.998;2024-03-07T11:57:47;11.00;64.10
19403;DHT22;9837;48.888;8.998;2024-03-07T12:00:14;11.20;62.70
19403;DHT22;9837;48.888;8.998;2024-03-07T12:02:41;11.20;63.40
19403;DHT22;9837;48.888;8.998;2024-03-07T12:07:34;11.10;61.90
19403;DHT22;9837;48.888;8.998;2024-03-07T12:10:01;11.10;62.60
19403;DHT22;9837;48.888;8.998;2024-03-07T12:12:30;11.10;62.60
19403;DHT22;9837;48.888;8.998;2024-03-07T12:14:56;11.00;63.80
19403;DHT22;9837;48.888;8.998;2024-03-07T12:17:22;10.90;63.60
19403;DHT22;9837;48.888;8.998;2024-03-07T12:19:49;10.80;63.10
19403;DHT22;9837;48.888;8.998;2024-03-07T12:22:21;10.80;64.90
19403;DHT22;9837;48.888;8.998;2024-03-07T12:25:02;11.10;61.90
19403;DHT22;9837;48.888;8.998;2024-03-07T12:27:28;11.00;62.40
19403;DHT22;9837;48.888;8.998;2024-03-07T12:29:55;11.10;62.90
19403;DHT22;9837;48.888;8.998;2024-03-07T12:32:20;10.90;63.10
19403;DHT22;9837;48.888;8.998;2024-03-07T12:34:46;10.90;63.10
19403;DHT22;9837;48.888;8.998;2024-03-07T12:37:13;11.10;62.50
19403;DHT22;9837;48.888;8.998;2024-03-07T12:39:45;10.90;63.50
19403;DHT22;9837;48.888;8.998;2024-03-07T12:42:18;10.80;62.60
19403;DHT22;9837;48.888;8.998;2024-03-07T12:44:45;10.80;63.40
19403;DHT22;9837;48.888;8.998;2024-03-07T12:47:14;10.80;63.60
19403;DHT22;9837;48.888;8.998;2024-03-07T12:49:43;10.80;63.10
19403;DHT22;9837;48.888;8.998;2024-03-07T12:52:09;10.80;63.90
19403;DHT22;9837;48.888;8.998;2024-03-07T12:54:36;11.00;63.20
19403;DHT22;9837;48.888;8.998;2024-03-07T12:57:08;11.00;62.80
19403;DHT22;9837;48.888;8.998;2024-03-07T12:59:35;11.00;63.50
19403;DHT22;9837;48.888;8.998;2024-03-07T13:02:03;11.10;62.80
19403;DHT22;9837;48.888;8.998;2024-03-07T13:04:32;11.10;63.60
19403;DHT22;9837;48.888;8.998;2024-03-07T13:06:57;10.70;64.20
19403;DHT22;9837;48.888;8.998;2024-03-07T13:09:25;10.50;64.60
19403;DHT22;9837;48.888;8.998;2024-03-07T13:11:59;10.60;65.40
19403;DHT22;9837;48.888;8.998;2024-03-07T13:14:30;10.60;66.10
19403;DHT22;9837;48.888;8.998;2024-03-07T13:17:01;10.50;65.50
19403;DHT22;9837;48.888;8.998;2024-03-07T13:19:28;10.40;66.10
19403;DHT22;9837;48.888;8.998;2024-03-07T13:21:54;10.30;66.50
19403;DHT22;9837;48.888;8.998;2024-03-07T13:24:21;10.50;66.80
19403;DHT22;9837;48.888;8.998;2024-03-07T13:26:47;10.40;66.60
19403;DHT22;9837;48.888;8.998;2024-03-07T13:29:14;10.30;66.60
19403;DHT22;9837;48.888;8.998;2024-03-07T13:31:40;10.30;67.00
19403;DHT22;9837;48.888;8.998;2024-03-07T13:34:08;10.50;65.30
19403;DHT22;9837;48.888;8.998;2024-03-07T13:36:41;10.60;65.90
19403;DHT22;9837;48.888;8.998;2024-03-07T13:39:08;10.50;65.90
19403;DHT22;9837;48.888;8.998;2024-03-07T13:41:38;10.50;66.10
19403;DHT22;9837;48.888;8.998;2024-03-07T13:44:04;10.40;65.10
19403;DHT22;9837;48.888;8.998;2024-03-07T13:46:29;10.10;65.70
19403;DHT22;9837;48.888;8.998;2024-03-07T13:48:58;10.30;65.70
19403;DHT22;9837;48.888;8.998;2024-03-07T13:51:33;10.40;65.50
19403;DHT22;9837;48.888;8.998;2024-03-07T13:54:01;10.20;65.60
19403;DHT22;9837;48.888;8.998;2024-03-07T13:57:39;10.50;65.20
19403;DHT22;9837;48.888;8.998;2024-03-07T14:00:16;10.70;65.30
19403;DHT22;9837;48.888;8.998;2024-03-07T14:06:09;10.80;66.10
19403;DHT22;9837;48.888;8.998;2024-03-07T14:08:50;10.90;64.40
19403;DHT22;9837;48.888;8.998;2024-03-07T14:14:45;10.70;64.40
19403;DHT22;9837;48.888;8.998;2024-03-07T14:17:40;10.70;65.10
19403;DHT22;9837;48.888;8.998;2024-03-07T14:23:27;10.90;64.40
19403;DHT22;9837;48.888;8.998;2024-03-07T14:31:46;10.70;63.50
19403;DHT22;9837;48.888;8.998;2024-03-07T14:36:57;10.60;64.70
19403;DHT22;9837;48.888;8.998;2024-03-07T14:39:27;10.70;65.20
19403;DHT22;9837;48.888;8.998;2024-03-07T14:41:58;11.00;63.40
19403;DHT22;9837;48.888;8.998;2024-03-07T14:44:24;11.10;64.20
19403;DHT22;9837;48.888;8.998;2024-03-07T14:46:55;10.90;63.60
19403;DHT22;9837;48.888;8.998;2024-03-07T14:49:22;10.70;62.90
19403;DHT22;9837;48.888;8.998;2024-03-07T14:51:48;10.90;63.60
19403;DHT22;9837;48.888;8.998;2024-03-07T14:54:16;11.00;62.20
19403;DHT22;9837;48.888;8.998;2024-03-07T14:56:41;10.90;61.50
19403;DHT22;9837;48.888;8.998;2024-03-07T14:59:07;10.90;61.40
19403;DHT22;9837;48.888;8.998;2024-03-07T15:01:32;10.90;62.30
19403;DHT22;9837;48.888;8.998;2024-03-07T15:04:00;11.20;61.00
19403;DHT22;9837;48.888;8.998;2024-03-07T15:06:28;11.30;61.00
19403;DHT22;9837;48.888;8.998;2024-03-07T15:08:57;11.40;60.40
19403;DHT22;9837;48.888;8.998;2024-03-07T15:11:28;11.30;60.40
19403;DHT22;9837;48.888;8.998;2024-03-07T15:13:54;11.40;60.60
19403;DHT22;9837;48.888;8.998;2024-03-07T15:16:20;11.30;60.30
19403;DHT22;9837;48.888;8.998;2024-03-07T15:18:46;11.30;61.00
19403;DHT22;9837;48.888;8.998;2024-03-07T15:21:12;11.00;61.00
19403;DHT22;9837;48.888;8.998;2024-03-07T15:23:41;10.90;61.70
19403;DHT22;9837;48.888;8.998;2024-03-07T15:26:07;11.20;61.60
19403;DHT22;9837;48.888;8.998;2024-03-07T15:28:33;11.00;60.80
19403;DHT22;9837;48.888;8.998;2024-03-07T15:31:00;10.90;61.70
19403;DHT22;9837;48.888;8.998;2024-03-07T15:33:31;11.00;62.30
19403;DHT22;9837;48.888;8.998;2024-03-07T15:35:57;11.30;62.00
19403;DHT22;9837;48.888;8.998;2024-03-07T15:38:22;11.30;62.60
19403;DHT22;9837;48.888;8.998;2024-03-07T15:40:48;11.30;61.20
19403;DHT22;9837;48.888;8.998;2024-03-07T15:43:15;11.30;61.20
19403;DHT22;9837;48.888;8.998;2024-03-07T15:45:41;11.40;61.20
19403;DHT22;9837;48.888;8.998;2024-03-07T15:48:07;11.40;61.70
19403;DHT22;9837;48.888;8.998;2024-03-07T15:50:36;11.20;62.50
19403;DHT22;9837;48.888;8.998;2024-03-07T15:53:03;11.20;61.70
19403;DHT22;9837;48.888;8.998;2024-03-07T15:55:30;11.10;62.00
19403;DHT22;9837;48.888;8.998;2024-03-07T15:57:59;11.10;62.70
19403;DHT22;9837;48.888;8.998;2024-03-07T16:00:30;10.50;62.50
19403;DHT22;9837;48.888;8.998;2024-03-07T16:03:00;10.50;63.20
19403;DHT22;9837;48.888;8.998;2024-03-07T16:05:27;10.40;64.30
19403;DHT22;9837;48.888;8.998;2024-03-07T16:07:57;10.30;64.70
19403;DHT22;9837;48.888;8.998;2024-03-07T16:10:30;10.70;64.20
19403;DHT22;9837;48.888;8.998;2024-03-07T16:12:57;10.80;64.90
19403;DHT22;9837;48.888;8.998;2024-03-07T16:15:23;10.40;62.40
19403;DHT22;9837;48.888;8.998;2024-03-07T16:17:52;10.20;63.40
19403;DHT22;9837;48.888;8.998;2024-03-07T16:22:50;10.30;62.80
19403;DHT22;9837;48.888;8.998;2024-03-07T16:25:17;10.10;63.50
19403;DHT22;9837;48.888;8.998;2024-03-07T16:27:45;10.20;63.30
19403;DHT22;9837;48.888;8.998;2024-03-07T16:30:15;10.50;63.10
19403;DHT22;9837;48.888;8.998;2024-03-07T16:32:42;10.70;61.90
19403;DHT22;9837;48.888;8.998;2024-03-07T16:35:10;10.70;61.70
19403;DHT22;9837;48.888;8.998;2024-03-07T16:37:41;10.60;61.30
19403;DHT22;9837;48.888;8.998;2024-03-07T16:40:08;10.60;62.10
19403;DHT22;9837;48.888;8.998;2024-03-07T16:42:35;10.50;62.30
19403;DHT22;9837;48.888;8.998;2024-03-07T16:45:11;10.40;62.20
19403;DHT22;9837;48.888;8.998;2024-03-07T16:47:40;10.50;62.40
19403;DHT22;9837;48.888;8.998;2024-03-07T16:50:06;10.50;63.20
19403;DHT22;9837;48.888;8.998;2024-03-07T16:52:35;10.40;62.40
19403;DHT22;9837;48.888;8.998;2024-03-07T16:55:00;10.50;63.20
19403;DHT22;9837;48.888;8.998;2024-03-07T16:57:26;10.50;61.90
19403;DHT22;9837;48.888;8.998;2024-03-07T16:59:52;10.40;61.40
19403;DHT22;9837;48.888;8.998;2024-03-07T17:02:17;10.50;62.20